sensor_id;sensor_type;location;lat;lon;timestamp;P1;durP1;ratioP1;P2;durP2;ratioP2
3571;SDS011;7958;53.024;12.970;2023-09-18T00:00:06;7.97;;;7.17;;
3571;SDS011;7958;53.024;12.970;2023-09-18T00:02:38;8.43;;;7.63;;
3571;SDS011;7958;53.024;12.970;2023-09-18T00:05:05;7.97;;;7.27;;
3571;SDS011;7958;53.024;12.970;2023-09-18T00:07:32;7.30;;;6.70;;
3571;SDS011;7958;53.024;12.970;2023-09-18T00:09:58;9.53;;;8.40;;
3571;SDS011;7958;53.024;12.970;2023-09-18T00:12:25;8.77;;;7.93;;
3571;SDS011;7958;53.024;12.970;2023-09-18T00:14:51;11.20;;;8.40;;
3571;SDS011;7958;53.024;12.970;2023-09-18T00:17:17;7.93;;;7.00;;
3571;SDS011;7958;53.024;12.970;2023-09-18T00:19:46;7.90;;;7.10;;
3571;SDS011;7958;53.024;12.970;2023-09-18T00:22:12;7.90;;;7.20;;
3571;SDS011;7958;53.024;12.970;2023-09-18T00:24:39;8.00;;;7.27;;
3571;SDS011;7958;53.024;12.970;2023-09-18T00:27:06;7.63;;;6.80;;
3571;SDS011;7958;53.024;12.970;2023-09-18T00:29:32;8.83;;;8.03;;
3571;SDS011;7958;53.024;12.970;2023-09-18T00:32:00;11.10;;;8.53;;
3571;SDS011;7958;53.024;12.970;2023-09-18T00:34:26;13.53;;;7.07;;
3571;SDS011;7958;53.024;12.970;2023-09-18T00:36:55;8.50;;;7.60;;
3571;SDS011;7958;53.024;12.970;2023-09-18T00:39:22;8.03;;;7.23;;
3571;SDS011;7958;53.024;12.970;2023-09-18T00:41:49;8.67;;;7.27;;
3571;SDS011;7958;53.024;12.970;2023-09-18T00:44:19;8.53;;;7.00;;
3571;SDS011;7958;53.024;12.970;2023-09-18T00:46:45;10.97;;;7.80;;
3571;SDS011;7958;53.024;12.970;2023-09-18T00:49:12;7.90;;;7.10;;
3571;SDS011;7958;53.024;12.970;2023-09-18T00:51:38;7.90;;;7.20;;
3571;SDS011;7958;53.024;12.970;2023-09-18T00:54:06;8.60;;;7.60;;
3571;SDS011;7958;53.024;12.970;2023-09-18T00:56:33;9.00;;;7.57;;
3571;SDS011;7958;53.024;12.970;2023-09-18T00:59:00;8.43;;;7.63;;
3571;SDS011;7958;53.024;12.970;2023-09-18T01:01:28;8.50;;;7.37;;
3571;SDS011;7958;53.024;12.970;2023-09-18T01:03:55;8.10;;;7.30;;
3571;SDS011;7958;53.024;12.970;2023-09-18T01:06:24;8.23;;;7.43;;
3571;SDS011;7958;53.024;12.970;2023-09-18T01:08:53;9.60;;;8.63;;
3571;SDS011;7958;53.024;12.970;2023-09-18T01:11:22;9.43;;;8.43;;
3571;SDS011;7958;53.024;12.970;2023-09-18T01:13:54;11.53;;;8.57;;
3571;SDS011;7958;53.024;12.970;2023-09-18T01:16:25;8.93;;;7.87;;
3571;SDS011;7958;53.024;12.970;2023-09-18T01:18:54;9.93;;;8.57;;
3571;SDS011;7958;53.024;12.970;2023-09-18T01:21:20;9.40;;;7.90;;
3571;SDS011;7958;53.024;12.970;2023-09-18T01:23:48;8.60;;;7.80;;
3571;SDS011;7958;53.024;12.970;2023-09-18T01:26:16;8.97;;;8.07;;
3571;SDS011;7958;53.024;12.970;2023-09-18T01:28:43;9.40;;;8.50;;
3571;SDS011;7958;53.024;12.970;2023-09-18T01:31:11;9.60;;;8.70;;
3571;SDS011;7958;53.024;12.970;2023-09-18T01:33:37;9.40;;;8.50;;
3571;SDS011;7958;53.024;12.970;2023-09-18T01:36:04;10.27;;;8.23;;
3571;SDS011;7958;53.024;12.970;2023-09-18T01:38:32;9.07;;;7.80;;
3571;SDS011;7958;53.024;12.970;2023-09-18T01:41:01;9.83;;;8.83;;
3571;SDS011;7958;53.024;12.970;2023-09-18T01:43:28;9.63;;;8.63;;
3571;SDS011;7958;53.024;12.970;2023-09-18T01:45:55;9.17;;;8.27;;
3571;SDS011;7958;53.024;12.970;2023-09-18T01:48:22;8.80;;;7.97;;
3571;SDS011;7958;53.024;12.970;2023-09-18T01:50:48;8.33;;;7.63;;
3571;SDS011;7958;53.024;12.970;2023-09-18T01:53:15;9.50;;;8.33;;
3571;SDS011;7958;53.024;12.970;2023-09-18T01:55:41;12.17;;;8.63;;
3571;SDS011;7958;53.024;12.970;2023-09-18T01:58:09;9.53;;;8.50;;
3571;SDS011;7958;53.024;12.970;2023-09-18T02:00:35;9.60;;;8.60;;
3571;SDS011;7958;53.024;12.970;2023-09-18T02:03:02;8.93;;;8.23;;
3571;SDS011;7958;53.024;12.970;2023-09-18T02:05:30;10.80;;;9.80;;
3571;SDS011;7958;53.024;12.970;2023-09-18T02:07:57;8.60;;;7.80;;
3571;SDS011;7958;53.024;12.970;2023-09-18T02:10:24;9.00;;;8.03;;
3571;SDS011;7958;53.024;12.970;2023-09-18T02:12:50;8.33;;;7.57;;
3571;SDS011;7958;53.024;12.970;2023-09-18T02:15:18;7.67;;;6.97;;
3571;SDS011;7958;53.024;12.970;2023-09-18T02:17:45;9.10;;;8.30;;
3571;SDS011;7958;53.024;12.970;2023-09-18T02:20:12;9.23;;;8.20;;
3571;SDS011;7958;53.024;12.970;2023-09-18T02:22:38;8.70;;;7.57;;
3571;SDS011;7958;53.024;12.970;2023-09-18T02:25:06;7.10;;;6.40;;
3571;SDS011;7958;53.024;12.970;2023-09-18T02:27:33;7.73;;;7.03;;
3571;SDS011;7958;53.024;12.970;2023-09-18T02:30:00;8.73;;;7.27;;
3571;SDS011;7958;53.024;12.970;2023-09-18T02:32:29;9.47;;;8.50;;
3571;SDS011;7958;53.024;12.970;2023-09-18T02:34:55;10.73;;;8.23;;
3571;SDS011;7958;53.024;12.970;2023-09-18T02:37:22;7.80;;;7.10;;
3571;SDS011;7958;53.024;12.970;2023-09-18T02:39:49;8.97;;;8.07;;
3571;SDS011;7958;53.024;12.970;2023-09-18T02:42:16;10.00;;;7.50;;
3571;SDS011;7958;53.024;12.970;2023-09-18T02:44:42;8.30;;;7.50;;
3571;SDS011;7958;53.024;12.970;2023-09-18T02:47:09;9.07;;;7.23;;
3571;SDS011;7958;53.024;12.970;2023-09-18T02:49:37;9.13;;;7.27;;
3571;SDS011;7958;53.024;12.970;2023-09-18T02:52:04;8.60;;;7.37;;
3571;SDS011;7958;53.024;12.970;2023-09-18T02:54:31;8.50;;;7.80;;
3571;SDS011;7958;53.024;12.970;2023-09-18T02:56:57;9.50;;;8.57;;
3571;SDS011;7958;53.024;12.970;2023-09-18T02:59:24;8.57;;;7.53;;
3571;SDS011;7958;53.024;12.970;2023-09-18T03:01:51;8.03;;;7.30;;
3571;SDS011;7958;53.024;12.970;2023-09-18T03:04:18;8.30;;;7.50;;
3571;SDS011;7958;53.024;12.970;2023-09-18T03:06:47;8.77;;;7.97;;
3571;SDS011;7958;53.024;12.970;2023-09-18T03:09:14;8.00;;;7.07;;
3571;SDS011;7958;53.024;12.970;2023-09-18T03:11:41;8.97;;;8.07;;
3571;SDS011;7958;53.024;12.970;2023-09-18T03:14:09;12.60;;;8.47;;
3571;SDS011;7958;53.024;12.970;2023-09-18T03:16:36;8.83;;;8.03;;
3571;SDS011;7958;53.024;12.970;2023-09-18T03:19:03;9.73;;;8.80;;
3571;SDS011;7958;53.024;12.970;2023-09-18T03:21:29;8.77;;;7.87;;
3571;SDS011;7958;53.024;12.970;2023-09-18T03:23:59;9.03;;;7.93;;
3571;SDS011;7958;53.024;12.970;2023-09-18T03:26:26;8.57;;;7.70;;
3571;SDS011;7958;53.024;12.970;2023-09-18T03:28:53;8.20;;;7.50;;
3571;SDS011;7958;53.024;12.970;2023-09-18T03:31:19;8.90;;;7.60;;
3571;SDS011;7958;53.024;12.970;2023-09-18T03:33:46;9.13;;;8.23;;
3571;SDS011;7958;53.024;12.970;2023-09-18T03:36:13;16.90;;;8.20;;
3571;SDS011;7958;53.024;12.970;2023-09-18T03:38:40;9.03;;;7.40;;
3571;SDS011;7958;53.024;12.970;2023-09-18T03:41:08;8.70;;;7.90;;
3571;SDS011;7958;53.024;12.970;2023-09-18T03:43:35;8.20;;;7.10;;
3571;SDS011;7958;53.024;12.970;2023-09-18T03:46:05;10.50;;;7.83;;
3571;SDS011;7958;53.024;12.970;2023-09-18T03:48:32;8.80;;;7.90;;
3571;SDS011;7958;53.024;12.970;2023-09-18T03:51:02;9.77;;;8.13;;
3571;SDS011;7958;53.024;12.970;2023-09-18T03:53:29;8.73;;;7.93;;
3571;SDS011;7958;53.024;12.970;2023-09-18T03:55:55;8.70;;;7.80;;
3571;SDS011;7958;53.024;12.970;2023-09-18T03:58:24;10.83;;;8.87;;
3571;SDS011;7958;53.024;12.970;2023-09-18T04:00:50;9.30;;;8.20;;
3571;SDS011;7958;53.024;12.970;2023-09-18T04:03:17;9.03;;;8.10;;
3571;SDS011;7958;53.024;12.970;2023-09-18T04:05:44;7.53;;;6.93;;
3571;SDS011;7958;53.024;12.970;2023-09-18T04:08:10;8.87;;;8.07;;
3571;SDS011;7958;53.024;12.970;2023-09-18T04:10:37;8.80;;;7.90;;
3571;SDS011;7958;53.024;12.970;2023-09-18T04:13:03;8.30;;;7.50;;
3571;SDS011;7958;53.024;12.970;2023-09-18T04:15:32;8.63;;;7.73;;
3571;SDS011;7958;53.024;12.970;2023-09-18T04:18:02;9.00;;;8.10;;
3571;SDS011;7958;53.024;12.970;2023-09-18T04:20:29;9.57;;;7.50;;
3571;SDS011;7958;53.024;12.970;2023-09-18T04:25:46;10.17;;;9.20;;
3571;SDS011;7958;53.024;12.970;2023-09-18T04:28:13;9.80;;;8.80;;
3571;SDS011;7958;53.024;12.970;2023-09-18T04:30:41;10.07;;;9.07;;
3571;SDS011;7958;53.024;12.970;2023-09-18T04:33:08;11.53;;;8.23;;
3571;SDS011;7958;53.024;12.970;2023-09-18T04:35:34;11.00;;;8.37;;
3571;SDS011;7958;53.024;12.970;2023-09-18T04:38:01;10.23;;;9.23;;
3571;SDS011;7958;53.024;12.970;2023-09-18T04:40:28;13.67;;;8.50;;
3571;SDS011;7958;53.024;12.970;2023-09-18T04:42:57;10.33;;;8.20;;
3571;SDS011;7958;53.024;12.970;2023-09-18T04:45:23;10.33;;;8.93;;
3571;SDS011;7958;53.024;12.970;2023-09-18T04:47:52;13.60;;;9.33;;
3571;SDS011;7958;53.024;12.970;2023-09-18T04:50:18;12.60;;;9.37;;
3571;SDS011;7958;53.024;12.970;2023-09-18T04:52:45;9.90;;;8.20;;
3571;SDS011;7958;53.024;12.970;2023-09-18T04:55:12;11.73;;;9.70;;
3571;SDS011;7958;53.024;12.970;2023-09-18T04:57:40;11.53;;;9.20;;
3571;SDS011;7958;53.024;12.970;2023-09-18T05:00:06;10.70;;;9.50;;
3571;SDS011;7958;53.024;12.970;2023-09-18T05:02:37;10.13;;;8.97;;
3571;SDS011;7958;53.024;12.970;2023-09-18T05:05:06;16.03;;;9.40;;
3571;SDS011;7958;53.024;12.970;2023-09-18T05:07:34;12.60;;;10.90;;
3571;SDS011;7958;53.024;12.970;2023-09-18T05:10:00;10.03;;;8.43;;
3571;SDS011;7958;53.024;12.970;2023-09-18T05:12:29;9.87;;;8.87;;
3571;SDS011;7958;53.024;12.970;2023-09-18T05:14:56;9.90;;;9.00;;
3571;SDS011;7958;53.024;12.970;2023-09-18T05:17:27;9.50;;;8.60;;
3571;SDS011;7958;53.024;12.970;2023-09-18T05:22:40;9.50;;;8.63;;
3571;SDS011;7958;53.024;12.970;2023-09-18T05:25:07;8.87;;;8.07;;
3571;SDS011;7958;53.024;12.970;2023-09-18T05:27:35;10.30;;;8.70;;
3571;SDS011;7958;53.024;12.970;2023-09-18T05:30:01;14.23;;;9.17;;
3571;SDS011;7958;53.024;12.970;2023-09-18T05:32:28;18.60;;;10.60;;
3571;SDS011;7958;53.024;12.970;2023-09-18T05:34:54;15.37;;;8.80;;
3571;SDS011;7958;53.024;12.970;2023-09-18T05:37:22;9.30;;;8.40;;
3571;SDS011;7958;53.024;12.970;2023-09-18T05:39:49;9.00;;;8.10;;
3571;SDS011;7958;53.024;12.970;2023-09-18T05:42:15;8.37;;;7.67;;
3571;SDS011;7958;53.024;12.970;2023-09-18T05:44:42;7.13;;;6.43;;
3571;SDS011;7958;53.024;12.970;2023-09-18T05:47:08;10.03;;;8.03;;
3571;SDS011;7958;53.024;12.970;2023-09-18T05:49:35;9.13;;;7.90;;
3571;SDS011;7958;53.024;12.970;2023-09-18T05:52:01;10.37;;;7.40;;
3571;SDS011;7958;53.024;12.970;2023-09-18T05:54:29;8.97;;;7.43;;
3571;SDS011;7958;53.024;12.970;2023-09-18T05:56:56;14.30;;;7.60;;
3571;SDS011;7958;53.024;12.970;2023-09-18T05:59:22;8.00;;;7.30;;
3571;SDS011;7958;53.024;12.970;2023-09-18T06:01:49;9.80;;;7.23;;
3571;SDS011;7958;53.024;12.970;2023-09-18T06:04:16;7.30;;;6.60;;
3571;SDS011;7958;53.024;12.970;2023-09-18T06:06:42;8.47;;;7.20;;
3571;SDS011;7958;53.024;12.970;2023-09-18T06:09:09;8.47;;;6.40;;
3571;SDS011;7958;53.024;12.970;2023-09-18T06:11:36;8.00;;;7.20;;
3571;SDS011;7958;53.024;12.970;2023-09-18T06:14:03;7.27;;;6.33;;
3571;SDS011;7958;53.024;12.970;2023-09-18T06:16:30;7.70;;;6.90;;
3571;SDS011;7958;53.024;12.970;2023-09-18T06:18:56;7.13;;;6.37;;
3571;SDS011;7958;53.024;12.970;2023-09-18T06:21:25;9.40;;;6.87;;
3571;SDS011;7958;53.024;12.970;2023-09-18T06:23:52;6.90;;;6.33;;
3571;SDS011;7958;53.024;12.970;2023-09-18T06:26:18;8.17;;;7.00;;
3571;SDS011;7958;53.024;12.970;2023-09-18T06:28:46;9.27;;;6.87;;
3571;SDS011;7958;53.024;12.970;2023-09-18T06:31:13;6.90;;;6.13;;
3571;SDS011;7958;53.024;12.970;2023-09-18T06:33:39;9.90;;;7.10;;
3571;SDS011;7958;53.024;12.970;2023-09-18T06:36:06;9.53;;;6.80;;
3571;SDS011;7958;53.024;12.970;2023-09-18T06:38:34;7.90;;;6.40;;
3571;SDS011;7958;53.024;12.970;2023-09-18T06:41:01;8.53;;;6.63;;
3571;SDS011;7958;53.024;12.970;2023-09-18T06:43:27;7.27;;;6.67;;
3571;SDS011;7958;53.024;12.970;2023-09-18T06:45:55;7.20;;;6.20;;
3571;SDS011;7958;53.024;12.970;2023-09-18T06:48:22;9.73;;;6.03;;
3571;SDS011;7958;53.024;12.970;2023-09-18T06:50:49;7.00;;;6.30;;
3571;SDS011;7958;53.024;12.970;2023-09-18T06:53:16;6.80;;;5.60;;
3571;SDS011;7958;53.024;12.970;2023-09-18T06:55:42;6.50;;;5.90;;
3571;SDS011;7958;53.024;12.970;2023-09-18T06:58:08;6.60;;;6.00;;
3571;SDS011;7958;53.024;12.970;2023-09-18T07:00:34;6.70;;;6.00;;
3571;SDS011;7958;53.024;12.970;2023-09-18T07:03:04;7.30;;;5.87;;
3571;SDS011;7958;53.024;12.970;2023-09-18T07:05:30;10.60;;;6.27;;
3571;SDS011;7958;53.024;12.970;2023-09-18T07:07:57;5.83;;;5.33;;
3571;SDS011;7958;53.024;12.970;2023-09-18T07:10:23;11.63;;;5.77;;
3571;SDS011;7958;53.024;12.970;2023-09-18T07:12:50;8.57;;;5.37;;
3571;SDS011;7958;53.024;12.970;2023-09-18T07:15:17;6.50;;;5.83;;
3571;SDS011;7958;53.024;12.970;2023-09-18T07:17:43;6.63;;;5.70;;
3571;SDS011;7958;53.024;12.970;2023-09-18T07:20:11;6.37;;;5.70;;
3571;SDS011;7958;53.024;12.970;2023-09-18T07:22:39;5.93;;;5.43;;
3571;SDS011;7958;53.024;12.970;2023-09-18T07:25:06;5.33;;;4.87;;
3571;SDS011;7958;53.024;12.970;2023-09-18T07:27:33;9.50;;;5.70;;
3571;SDS011;7958;53.024;12.970;2023-09-18T07:30:01;5.33;;;4.90;;
3571;SDS011;7958;53.024;12.970;2023-09-18T07:32:29;5.90;;;5.33;;
3571;SDS011;7958;53.024;12.970;2023-09-18T07:34:56;5.40;;;5.00;;
3571;SDS011;7958;53.024;12.970;2023-09-18T07:37:24;5.40;;;4.90;;
3571;SDS011;7958;53.024;12.970;2023-09-18T07:39:50;6.33;;;5.67;;
3571;SDS011;7958;53.024;12.970;2023-09-18T07:42:17;5.17;;;4.77;;
3571;SDS011;7958;53.024;12.970;2023-09-18T07:44:43;5.80;;;4.83;;
3571;SDS011;7958;53.024;12.970;2023-09-18T07:47:09;5.00;;;4.60;;
3571;SDS011;7958;53.024;12.970;2023-09-18T07:49:35;5.13;;;4.63;;
3571;SDS011;7958;53.024;12.970;2023-09-18T07:52:02;6.30;;;5.17;;
3571;SDS011;7958;53.024;12.970;2023-09-18T07:54:30;8.50;;;4.83;;
3571;SDS011;7958;53.024;12.970;2023-09-18T07:56:57;5.13;;;4.73;;
3571;SDS011;7958;53.024;12.970;2023-09-18T07:59:26;5.70;;;4.83;;
3571;SDS011;7958;53.024;12.970;2023-09-18T08:01:52;5.50;;;4.97;;
3571;SDS011;7958;53.024;12.970;2023-09-18T08:04:19;5.23;;;4.83;;
3571;SDS011;7958;53.024;12.970;2023-09-18T08:06:46;5.10;;;4.70;;
3571;SDS011;7958;53.024;12.970;2023-09-18T08:09:13;5.17;;;4.67;;
3571;SDS011;7958;53.024;12.970;2023-09-18T08:11:42;5.30;;;4.70;;
3571;SDS011;7958;53.024;12.970;2023-09-18T08:14:08;6.07;;;4.70;;
3571;SDS011;7958;53.024;12.970;2023-09-18T08:16:37;7.17;;;4.30;;
3571;SDS011;7958;53.024;12.970;2023-09-18T08:19:04;6.87;;;4.53;;
3571;SDS011;7958;53.024;12.970;2023-09-18T08:21:31;6.30;;;4.37;;
3571;SDS011;7958;53.024;12.970;2023-09-18T08:23:58;7.80;;;4.63;;
3571;SDS011;7958;53.024;12.970;2023-09-18T08:26:24;6.40;;;4.50;;
3571;SDS011;7958;53.024;12.970;2023-09-18T08:28:54;5.57;;;4.40;;
3571;SDS011;7958;53.024;12.970;2023-09-18T08:31:20;6.47;;;4.33;;
3571;SDS011;7958;53.024;12.970;2023-09-18T08:33:48;6.10;;;4.13;;
3571;SDS011;7958;53.024;12.970;2023-09-18T08:36:14;7.27;;;4.70;;
3571;SDS011;7958;53.024;12.970;2023-09-18T08:38:41;5.30;;;4.03;;
3571;SDS011;7958;53.024;12.970;2023-09-18T08:41:09;4.83;;;4.33;;
3571;SDS011;7958;53.024;12.970;2023-09-18T08:43:35;4.50;;;4.20;;
3571;SDS011;7958;53.024;12.970;2023-09-18T08:46:04;4.30;;;4.00;;
3571;SDS011;7958;53.024;12.970;2023-09-18T08:48:31;5.20;;;4.43;;
3571;SDS011;7958;53.024;12.970;2023-09-18T08:51:01;4.50;;;4.20;;
3571;SDS011;7958;53.024;12.970;2023-09-18T08:53:29;5.53;;;4.10;;
3571;SDS011;7958;53.024;12.970;2023-09-18T08:55:57;4.70;;;3.70;;
3571;SDS011;7958;53.024;12.970;2023-09-18T08:58:26;5.80;;;4.00;;
3571;SDS011;7958;53.024;12.970;2023-09-18T09:00:53;5.50;;;4.03;;
3571;SDS011;7958;53.024;12.970;2023-09-18T09:03:21;6.83;;;4.20;;
3571;SDS011;7958;53.024;12.970;2023-09-18T09:05:48;4.23;;;3.90;;
3571;SDS011;7958;53.024;12.970;2023-09-18T09:08:15;4.30;;;4.00;;
3571;SDS011;7958;53.024;12.970;2023-09-18T09:10:41;4.60;;;3.97;;
3571;SDS011;7958;53.024;12.970;2023-09-18T09:13:08;5.50;;;4.30;;
3571;SDS011;7958;53.024;12.970;2023-09-18T09:15:43;3.87;;;3.47;;
3571;SDS011;7958;53.024;12.970;2023-09-18T09:18:11;4.33;;;4.00;;
3571;SDS011;7958;53.024;12.970;2023-09-18T09:20:41;5.27;;;4.00;;
3571;SDS011;7958;53.024;12.970;2023-09-18T09:23:08;3.70;;;3.50;;
3571;SDS011;7958;53.024;12.970;2023-09-18T09:25:35;4.80;;;4.33;;
3571;SDS011;7958;53.024;12.970;2023-09-18T09:28:02;8.70;;;4.10;;
3571;SDS011;7958;53.024;12.970;2023-09-18T09:30:30;4.63;;;4.23;;
3571;SDS011;7958;53.024;12.970;2023-09-18T09:32:58;4.90;;;3.60;;
3571;SDS011;7958;53.024;12.970;2023-09-18T09:35:27;4.27;;;3.87;;
3571;SDS011;7958;53.024;12.970;2023-09-18T09:37:58;4.17;;;3.70;;
3571;SDS011;7958;53.024;12.970;2023-09-18T09:40:25;5.20;;;4.70;;
3571;SDS011;7958;53.024;12.970;2023-09-18T09:42:54;3.97;;;3.67;;
3571;SDS011;7958;53.024;12.970;2023-09-18T09:45:25;6.70;;;3.50;;
3571;SDS011;7958;53.024;12.970;2023-09-18T09:47:53;8.80;;;3.90;;
3571;SDS011;7958;53.024;12.970;2023-09-18T09:50:19;4.90;;;4.50;;
3571;SDS011;7958;53.024;12.970;2023-09-18T09:52:47;4.70;;;4.30;;
3571;SDS011;7958;53.024;12.970;2023-09-18T09:55:20;4.00;;;3.70;;
3571;SDS011;7958;53.024;12.970;2023-09-18T09:57:49;4.13;;;3.63;;
3571;SDS011;7958;53.024;12.970;2023-09-18T10:00:16;7.07;;;4.03;;
3571;SDS011;7958;53.024;12.970;2023-09-18T10:02:56;5.47;;;3.80;;
3571;SDS011;7958;53.024;12.970;2023-09-18T10:05:24;4.43;;;4.13;;
3571;SDS011;7958;53.024;12.970;2023-09-18T10:07:53;7.43;;;4.30;;
3571;SDS011;7958;53.024;12.970;2023-09-18T10:10:22;5.83;;;4.50;;
3571;SDS011;7958;53.024;12.970;2023-09-18T10:12:48;4.70;;;4.40;;
3571;SDS011;7958;53.024;12.970;2023-09-18T10:15:15;4.70;;;4.40;;
3571;SDS011;7958;53.024;12.970;2023-09-18T10:17:43;4.50;;;4.07;;
3571;SDS011;7958;53.024;12.970;2023-09-18T10:20:12;4.53;;;4.10;;
3571;SDS011;7958;53.024;12.970;2023-09-18T10:22:44;5.70;;;3.93;;
3571;SDS011;7958;53.024;12.970;2023-09-18T10:25:13;4.37;;;3.97;;
3571;SDS011;7958;53.024;12.970;2023-09-18T10:27:44;4.67;;;4.30;;
3571;SDS011;7958;53.024;12.970;2023-09-18T10:30:11;6.47;;;4.20;;
3571;SDS011;7958;53.024;12.970;2023-09-18T10:32:39;5.40;;;4.10;;
3571;SDS011;7958;53.024;12.970;2023-09-18T10:35:06;4.40;;;4.00;;
3571;SDS011;7958;53.024;12.970;2023-09-18T10:37:33;4.83;;;4.40;;
3571;SDS011;7958;53.024;12.970;2023-09-18T10:40:01;8.00;;;3.97;;
3571;SDS011;7958;53.024;12.970;2023-09-18T10:42:30;4.43;;;4.13;;
3571;SDS011;7958;53.024;12.970;2023-09-18T10:45:00;4.80;;;4.40;;
3571;SDS011;7958;53.024;12.970;2023-09-18T10:47:29;4.27;;;3.87;;
3571;SDS011;7958;53.024;12.970;2023-09-18T10:49:56;4.87;;;4.37;;
3571;SDS011;7958;53.024;12.970;2023-09-18T10:52:23;4.93;;;4.50;;
3571;SDS011;7958;53.024;12.970;2023-09-18T10:54:50;6.33;;;4.37;;
3571;SDS011;7958;53.024;12.970;2023-09-18T10:57:17;6.53;;;4.43;;
3571;SDS011;7958;53.024;12.970;2023-09-18T10:59:44;6.73;;;4.30;;
3571;SDS011;7958;53.024;12.970;2023-09-18T11:02:14;4.73;;;4.33;;
3571;SDS011;7958;53.024;12.970;2023-09-18T11:04:42;7.83;;;4.60;;
3571;SDS011;7958;53.024;12.970;2023-09-18T11:07:13;6.80;;;4.40;;
3571;SDS011;7958;53.024;12.970;2023-09-18T11:09:45;5.23;;;4.27;;
3571;SDS011;7958;53.024;12.970;2023-09-18T11:12:15;7.00;;;5.30;;
3571;SDS011;7958;53.024;12.970;2023-09-18T11:14:43;5.97;;;4.60;;
3571;SDS011;7958;53.024;12.970;2023-09-18T11:17:31;4.97;;;4.57;;
3571;SDS011;7958;53.024;12.970;2023-09-18T11:20:06;4.50;;;4.10;;
3571;SDS011;7958;53.024;12.970;2023-09-18T11:22:38;5.23;;;4.03;;
3571;SDS011;7958;53.024;12.970;2023-09-18T11:28:04;7.70;;;4.20;;
3571;SDS011;7958;53.024;12.970;2023-09-18T11:30:32;4.33;;;3.90;;
3571;SDS011;7958;53.024;12.970;2023-09-18T11:33:02;5.13;;;4.73;;
3571;SDS011;7958;53.024;12.970;2023-09-18T11:35:29;4.07;;;3.73;;
3571;SDS011;7958;53.024;12.970;2023-09-18T11:38:07;4.40;;;4.00;;
3571;SDS011;7958;53.024;12.970;2023-09-18T11:40:35;4.70;;;4.40;;
3571;SDS011;7958;53.024;12.970;2023-09-18T11:43:19;7.00;;;4.50;;
3571;SDS011;7958;53.024;12.970;2023-09-18T11:45:50;5.97;;;4.20;;
3571;SDS011;7958;53.024;12.970;2023-09-18T11:48:20;6.20;;;3.70;;
3571;SDS011;7958;53.024;12.970;2023-09-18T11:50:49;4.60;;;4.20;;
3571;SDS011;7958;53.024;12.970;2023-09-18T11:53:17;4.90;;;4.50;;
3571;SDS011;7958;53.024;12.970;2023-09-18T11:55:44;6.90;;;4.20;;
3571;SDS011;7958;53.024;12.970;2023-09-18T11:58:11;4.60;;;3.90;;
3571;SDS011;7958;53.024;12.970;2023-09-18T12:00:38;5.70;;;4.63;;
3571;SDS011;7958;53.024;12.970;2023-09-18T12:03:14;5.43;;;4.00;;
3571;SDS011;7958;53.024;12.970;2023-09-18T12:05:51;4.70;;;4.30;;
3571;SDS011;7958;53.024;12.970;2023-09-18T12:08:19;8.27;;;4.03;;
3571;SDS011;7958;53.024;12.970;2023-09-18T12:10:47;4.80;;;4.40;;
3571;SDS011;7958;53.024;12.970;2023-09-18T12:13:15;9.47;;;4.20;;
3571;SDS011;7958;53.024;12.970;2023-09-18T12:15:41;7.30;;;4.47;;
3571;SDS011;7958;53.024;12.970;2023-09-18T12:18:08;4.03;;;3.73;;
3571;SDS011;7958;53.024;12.970;2023-09-18T12:20:37;4.77;;;4.27;;
3571;SDS011;7958;53.024;12.970;2023-09-18T12:23:06;4.80;;;4.33;;
3571;SDS011;7958;53.024;12.970;2023-09-18T12:25:35;4.93;;;4.40;;
3571;SDS011;7958;53.024;12.970;2023-09-18T12:28:01;4.53;;;4.13;;
3571;SDS011;7958;53.024;12.970;2023-09-18T12:30:29;4.43;;;4.03;;
3571;SDS011;7958;53.024;12.970;2023-09-18T12:32:57;9.33;;;4.27;;
3571;SDS011;7958;53.024;12.970;2023-09-18T12:35:25;4.70;;;4.30;;
3571;SDS011;7958;53.024;12.970;2023-09-18T12:37:54;6.00;;;4.03;;
3571;SDS011;7958;53.024;12.970;2023-09-18T12:40:23;6.50;;;4.70;;
3571;SDS011;7958;53.024;12.970;2023-09-18T12:42:51;5.13;;;4.73;;
3571;SDS011;7958;53.024;12.970;2023-09-18T12:45:19;6.07;;;4.73;;
3571;SDS011;7958;53.024;12.970;2023-09-18T12:47:46;5.27;;;4.77;;
3571;SDS011;7958;53.024;12.970;2023-09-18T12:50:12;5.57;;;4.33;;
3571;SDS011;7958;53.024;12.970;2023-09-18T12:52:39;5.27;;;4.80;;
3571;SDS011;7958;53.024;12.970;2023-09-18T12:55:06;8.80;;;4.63;;
3571;SDS011;7958;53.024;12.970;2023-09-18T12:57:35;9.70;;;4.07;;
3571;SDS011;7958;53.024;12.970;2023-09-18T13:00:08;5.30;;;4.90;;
3571;SDS011;7958;53.024;12.970;2023-09-18T13:02:37;11.80;;;4.60;;
3571;SDS011;7958;53.024;12.970;2023-09-18T13:05:04;4.57;;;4.27;;
3571;SDS011;7958;53.024;12.970;2023-09-18T13:07:32;6.90;;;4.53;;
3571;SDS011;7958;53.024;12.970;2023-09-18T13:10:12;7.90;;;4.80;;
3571;SDS011;7958;53.024;12.970;2023-09-18T13:12:42;4.80;;;4.40;;
3571;SDS011;7958;53.024;12.970;2023-09-18T13:15:09;8.00;;;4.40;;
3571;SDS011;7958;53.024;12.970;2023-09-18T13:17:38;6.63;;;4.70;;
3571;SDS011;7958;53.024;12.970;2023-09-18T13:20:11;4.63;;;4.03;;
3571;SDS011;7958;53.024;12.970;2023-09-18T13:22:39;8.90;;;5.20;;
3571;SDS011;7958;53.024;12.970;2023-09-18T13:25:07;5.53;;;4.40;;
3571;SDS011;7958;53.024;12.970;2023-09-18T13:27:34;5.63;;;4.33;;
3571;SDS011;7958;53.024;12.970;2023-09-18T13:30:02;5.60;;;4.50;;
3571;SDS011;7958;53.024;12.970;2023-09-18T13:32:32;7.37;;;4.23;;
3571;SDS011;7958;53.024;12.970;2023-09-18T13:34:59;6.57;;;4.70;;
3571;SDS011;7958;53.024;12.970;2023-09-18T13:37:26;4.97;;;4.60;;
3571;SDS011;7958;53.024;12.970;2023-09-18T13:39:54;4.90;;;4.40;;
3571;SDS011;7958;53.024;12.970;2023-09-18T13:42:20;4.67;;;4.30;;
3571;SDS011;7958;53.024;12.970;2023-09-18T13:44:47;5.07;;;4.57;;
3571;SDS011;7958;53.024;12.970;2023-09-18T13:47:16;4.40;;;3.97;;
3571;SDS011;7958;53.024;12.970;2023-09-18T13:49:42;7.97;;;4.50;;
3571;SDS011;7958;53.024;12.970;2023-09-18T13:52:11;11.03;;;4.90;;
3571;SDS011;7958;53.024;12.970;2023-09-18T13:54:38;5.07;;;4.57;;
3571;SDS011;7958;53.024;12.970;2023-09-18T13:57:05;8.20;;;5.10;;
3571;SDS011;7958;53.024;12.970;2023-09-18T13:59:32;4.90;;;4.50;;
3571;SDS011;7958;53.024;12.970;2023-09-18T14:01:59;5.17;;;4.60;;
3571;SDS011;7958;53.024;12.970;2023-09-18T14:04:27;7.20;;;4.43;;
3571;SDS011;7958;53.024;12.970;2023-09-18T14:06:54;8.30;;;4.43;;
3571;SDS011;7958;53.024;12.970;2023-09-18T14:09:20;10.90;;;4.60;;
3571;SDS011;7958;53.024;12.970;2023-09-18T14:11:47;5.90;;;4.83;;
3571;SDS011;7958;53.024;12.970;2023-09-18T14:14:14;5.73;;;4.20;;
3571;SDS011;7958;53.024;12.970;2023-09-18T14:16:40;6.13;;;4.57;;
3571;SDS011;7958;53.024;12.970;2023-09-18T14:19:08;4.07;;;3.73;;
3571;SDS011;7958;53.024;12.970;2023-09-18T14:21:38;6.07;;;3.80;;
3571;SDS011;7958;53.024;12.970;2023-09-18T14:24:05;5.10;;;3.90;;
3571;SDS011;7958;53.024;12.970;2023-09-18T14:26:32;6.90;;;4.73;;
3571;SDS011;7958;53.024;12.970;2023-09-18T14:28:59;6.00;;;4.70;;
3571;SDS011;7958;53.024;12.970;2023-09-18T14:31:26;10.93;;;3.97;;
3571;SDS011;7958;53.024;12.970;2023-09-18T14:33:52;4.37;;;3.97;;
3571;SDS011;7958;53.024;12.970;2023-09-18T14:36:20;6.40;;;3.23;;
3571;SDS011;7958;53.024;12.970;2023-09-18T14:38:48;5.67;;;3.70;;
3571;SDS011;7958;53.024;12.970;2023-09-18T14:41:14;6.83;;;4.17;;
3571;SDS011;7958;53.024;12.970;2023-09-18T14:43:42;7.03;;;4.00;;
3571;SDS011;7958;53.024;12.970;2023-09-18T14:46:08;6.37;;;3.77;;
3571;SDS011;7958;53.024;12.970;2023-09-18T14:48:35;4.00;;;3.27;;
3571;SDS011;7958;53.024;12.970;2023-09-18T14:51:02;6.40;;;3.23;;
3571;SDS011;7958;53.024;12.970;2023-09-18T14:53:29;4.83;;;3.53;;
3571;SDS011;7958;53.024;12.970;2023-09-18T14:55:56;5.50;;;3.30;;
3571;SDS011;7958;53.024;12.970;2023-09-18T14:58:23;4.93;;;2.93;;
3571;SDS011;7958;53.024;12.970;2023-09-18T15:00:49;5.80;;;3.63;;
3571;SDS011;7958;53.024;12.970;2023-09-18T15:03:16;5.07;;;3.43;;
3571;SDS011;7958;53.024;12.970;2023-09-18T15:05:42;6.30;;;3.40;;
3571;SDS011;7958;53.024;12.970;2023-09-18T15:08:08;9.60;;;3.40;;
3571;SDS011;7958;53.024;12.970;2023-09-18T15:10:35;9.03;;;3.50;;